Terminal Aerodrome Forecast
Issued by NWS

Home | Current Version | Previous Version | Text Only | Print | Product List | Glossary On
Versions: 1 2 3 4 5 6 7 8 9 10 11 12 13 14 15 16 17 18 19 20 21 22 23 24 25 26 27 28 29 30 31 32 33 34
838
FTUS43 KDTX 120527
TAFYIP
TAF
KYIP 120527Z 1206/1306 22006KT P6SM SCT040
     FM121000 23006KT P6SM BKN070
     FM121500 24012G20KT P6SM BKN040 BKN060
     FM121800 26014G26KT 4SM -SHSN SCT025 BKN040
      TEMPO 1219/1221 2SM -SHSN BKN022 OVC035
     FM122100 30016G28KT P6SM -SHSN SCT028 BKN045 PROB30 1221/1224
      2SM -SHSN BKN028 OVC035
     FM130300 32013G22KT P6SM BKN045=

USA.gov is the U.S. government's official web portal to all federal, state and local government web resources and services.